sensor_id;sensor_type;location;lat;lon;timestamp;pressure;altitude;pressure_sealevel;temperature
33267;BMP180;19638;49.080;11.896;2023-09-18T00:01:20;96065.00;;;19.20
33267;BMP180;19638;49.080;11.896;2023-09-18T00:05:27;96056.00;;;19.30
33267;BMP180;19638;49.080;11.896;2023-09-18T00:09:31;96052.00;;;19.30
33267;BMP180;19638;49.080;11.896;2023-09-18T00:13:35;96046.00;;;19.30
33267;BMP180;19638;49.080;11.896;2023-09-18T00:17:38;96047.00;;;19.30
33267;BMP180;19638;49.080;11.896;2023-09-18T00:21:42;96040.00;;;19.30
33267;BMP180;19638;49.080;11.896;2023-09-18T00:25:48;96028.00;;;19.30
33267;BMP180;19638;49.080;11.896;2023-09-18T00:29:52;96018.00;;;19.30
33267;BMP180;19638;49.080;11.896;2023-09-18T00:33:56;96014.00;;;19.30
33267;BMP180;19638;49.080;11.896;2023-09-18T00:37:59;96010.00;;;19.30
33267;BMP180;19638;49.080;11.896;2023-09-18T00:42:06;96004.00;;;19.30
33267;BMP180;19638;49.080;11.896;2023-09-18T00:46:11;96002.00;;;19.30
33267;BMP180;19638;49.080;11.896;2023-09-18T00:50:17;95999.00;;;19.30
33267;BMP180;19638;49.080;11.896;2023-09-18T00:54:20;95998.00;;;19.30
33267;BMP180;19638;49.080;11.896;2023-09-18T00:58:25;95988.00;;;19.30
33267;BMP180;19638;49.080;11.896;2023-09-18T01:02:31;95985.00;;;19.30
33267;BMP180;19638;49.080;11.896;2023-09-18T01:06:35;95999.00;;;19.30
33267;BMP180;19638;49.080;11.896;2023-09-18T01:15:02;95992.00;;;19.20
33267;BMP180;19638;49.080;11.896;2023-09-18T01:19:13;95979.00;;;19.20
33267;BMP180;19638;49.080;11.896;2023-09-18T01:23:22;95976.00;;;19.20
33267;BMP180;19638;49.080;11.896;2023-09-18T01:27:28;95961.00;;;19.20
33267;BMP180;19638;49.080;11.896;2023-09-18T01:31:31;95965.00;;;19.20
33267;BMP180;19638;49.080;11.896;2023-09-18T01:35:37;95948.00;;;19.20
33267;BMP180;19638;49.080;11.896;2023-09-18T01:39:47;95941.00;;;19.20
33267;BMP180;19638;49.080;11.896;2023-09-18T01:43:56;95937.00;;;19.20
33267;BMP180;19638;49.080;11.896;2023-09-18T01:48:04;95945.00;;;19.20
33267;BMP180;19638;49.080;11.896;2023-09-18T01:52:11;95943.00;;;19.20
33267;BMP180;19638;49.080;11.896;2023-09-18T01:56:18;95930.00;;;19.30
33267;BMP180;19638;49.080;11.896;2023-09-18T02:00:21;95937.00;;;19.30
33267;BMP180;19638;49.080;11.896;2023-09-18T02:04:32;95930.00;;;19.30
33267;BMP180;19638;49.080;11.896;2023-09-18T02:09:03;95923.00;;;19.20
33267;BMP180;19638;49.080;11.896;2023-09-18T02:13:08;95926.00;;;19.20
33267;BMP180;19638;49.080;11.896;2023-09-18T02:17:12;95926.00;;;19.20
33267;BMP180;19638;49.080;11.896;2023-09-18T02:21:19;95922.00;;;19.20
33267;BMP180;19638;49.080;11.896;2023-09-18T02:25:23;95925.00;;;19.20
33267;BMP180;19638;49.080;11.896;2023-09-18T02:29:28;95916.00;;;19.10
33267;BMP180;19638;49.080;11.896;2023-09-18T02:33:31;95919.00;;;19.10
33267;BMP180;19638;49.080;11.896;2023-09-18T02:37:37;95916.00;;;19.00
33267;BMP180;19638;49.080;11.896;2023-09-18T02:41:44;95921.00;;;19.00
33267;BMP180;19638;49.080;11.896;2023-09-18T02:45:50;95918.00;;;19.00
33267;BMP180;19638;49.080;11.896;2023-09-18T02:49:55;95906.00;;;18.90
33267;BMP180;19638;49.080;11.896;2023-09-18T02:54:00;95912.00;;;18.90
33267;BMP180;19638;49.080;11.896;2023-09-18T02:58:04;95912.00;;;18.90
33267;BMP180;19638;49.080;11.896;2023-09-18T03:02:12;95902.00;;;18.90
33267;BMP180;19638;49.080;11.896;2023-09-18T03:06:53;95904.00;;;18.80
33267;BMP180;19638;49.080;11.896;2023-09-18T03:10:59;95900.00;;;18.80
33267;BMP180;19638;49.080;11.896;2023-09-18T03:15:06;95908.00;;;18.80
33267;BMP180;19638;49.080;11.896;2023-09-18T03:19:18;95904.00;;;18.80
33267;BMP180;19638;49.080;11.896;2023-09-18T03:23:23;95901.00;;;18.80
33267;BMP180;19638;49.080;11.896;2023-09-18T03:27:26;95904.00;;;18.70
33267;BMP180;19638;49.080;11.896;2023-09-18T03:31:33;95893.00;;;18.70
33267;BMP180;19638;49.080;11.896;2023-09-18T03:35:49;95880.00;;;18.60
33267;BMP180;19638;49.080;11.896;2023-09-18T03:39:52;95868.00;;;18.60
33267;BMP180;19638;49.080;11.896;2023-09-18T03:43:55;95860.00;;;18.70
33267;BMP180;19638;49.080;11.896;2023-09-18T03:48:01;95847.00;;;18.60
33267;BMP180;19638;49.080;11.896;2023-09-18T03:52:07;95847.00;;;18.60
33267;BMP180;19638;49.080;11.896;2023-09-18T03:56:12;95832.00;;;18.60
33267;BMP180;19638;49.080;11.896;2023-09-18T04:00:15;95832.00;;;18.50
33267;BMP180;19638;49.080;11.896;2023-09-18T04:04:21;95826.00;;;18.50
33267;BMP180;19638;49.080;11.896;2023-09-18T04:08:25;95821.00;;;18.50
33267;BMP180;19638;49.080;11.896;2023-09-18T04:12:29;95839.00;;;18.40
33267;BMP180;19638;49.080;11.896;2023-09-18T04:16:32;95825.00;;;18.40
33267;BMP180;19638;49.080;11.896;2023-09-18T04:20:39;95811.00;;;18.40
33267;BMP180;19638;49.080;11.896;2023-09-18T04:24:44;95803.00;;;18.40
33267;BMP180;19638;49.080;11.896;2023-09-18T04:28:47;95804.00;;;18.30
33267;BMP180;19638;49.080;11.896;2023-09-18T04:32:52;95810.00;;;18.30
33267;BMP180;19638;49.080;11.896;2023-09-18T04:36:59;95809.00;;;18.30
33267;BMP180;19638;49.080;11.896;2023-09-18T04:41:03;95813.00;;;18.30
33267;BMP180;19638;49.080;11.896;2023-09-18T04:45:09;95812.00;;;18.30
33267;BMP180;19638;49.080;11.896;2023-09-18T04:49:18;95809.00;;;18.40
33267;BMP180;19638;49.080;11.896;2023-09-18T04:53:21;95801.00;;;18.30
33267;BMP180;19638;49.080;11.896;2023-09-18T04:57:27;95804.00;;;18.40
33267;BMP180;19638;49.080;11.896;2023-09-18T05:01:32;95796.00;;;18.40
33267;BMP180;19638;49.080;11.896;2023-09-18T05:05:39;95796.00;;;18.40
33267;BMP180;19638;49.080;11.896;2023-09-18T05:09:44;95794.00;;;18.60
33267;BMP180;19638;49.080;11.896;2023-09-18T05:13:50;95797.00;;;18.70
33267;BMP180;19638;49.080;11.896;2023-09-18T05:17:57;95790.00;;;18.80
33267;BMP180;19638;49.080;11.896;2023-09-18T05:22:06;95802.00;;;18.80
33267;BMP180;19638;49.080;11.896;2023-09-18T05:26:11;95813.00;;;18.90
33267;BMP180;19638;49.080;11.896;2023-09-18T05:30:19;95801.00;;;18.90
33267;BMP180;19638;49.080;11.896;2023-09-18T05:34:27;95801.00;;;19.00
33267;BMP180;19638;49.080;11.896;2023-09-18T05:38:30;95795.00;;;19.10
33267;BMP180;19638;49.080;11.896;2023-09-18T05:42:36;95780.00;;;19.20
33267;BMP180;19638;49.080;11.896;2023-09-18T05:46:41;95786.00;;;19.20
33267;BMP180;19638;49.080;11.896;2023-09-18T05:50:47;95808.00;;;19.30
33267;BMP180;19638;49.080;11.896;2023-09-18T05:54:52;95804.00;;;19.40
33267;BMP180;19638;49.080;11.896;2023-09-18T05:58:55;95804.00;;;19.50
33267;BMP180;19638;49.080;11.896;2023-09-18T06:03:01;95809.00;;;19.70
33267;BMP180;19638;49.080;11.896;2023-09-18T06:07:05;95802.00;;;19.90
33267;BMP180;19638;49.080;11.896;2023-09-18T06:11:08;95786.00;;;20.20
33267;BMP180;19638;49.080;11.896;2023-09-18T06:15:11;95786.00;;;20.50
33267;BMP180;19638;49.080;11.896;2023-09-18T06:19:20;95804.00;;;20.70
33267;BMP180;19638;49.080;11.896;2023-09-18T06:23:24;95799.00;;;21.10
33267;BMP180;19638;49.080;11.896;2023-09-18T06:27:28;95798.00;;;21.40
33267;BMP180;19638;49.080;11.896;2023-09-18T06:31:31;95789.00;;;21.50
33267;BMP180;19638;49.080;11.896;2023-09-18T06:35:35;95796.00;;;21.70
33267;BMP180;19638;49.080;11.896;2023-09-18T06:39:40;95800.00;;;21.80
33267;BMP180;19638;49.080;11.896;2023-09-18T06:43:45;95829.00;;;21.90
33267;BMP180;19638;49.080;11.896;2023-09-18T06:47:48;95837.00;;;21.90
33267;BMP180;19638;49.080;11.896;2023-09-18T06:51:53;95856.00;;;21.80
33267;BMP180;19638;49.080;11.896;2023-09-18T06:55:57;95873.00;;;21.60
33267;BMP180;19638;49.080;11.896;2023-09-18T07:00:01;95858.00;;;21.40
33267;BMP180;19638;49.080;11.896;2023-09-18T07:04:06;95847.00;;;21.40
33267;BMP180;19638;49.080;11.896;2023-09-18T07:08:11;95839.00;;;21.50
33267;BMP180;19638;49.080;11.896;2023-09-18T07:12:16;95852.00;;;21.50
33267;BMP180;19638;49.080;11.896;2023-09-18T07:16:22;95839.00;;;21.40
33267;BMP180;19638;49.080;11.896;2023-09-18T07:20:26;95836.00;;;21.50
33267;BMP180;19638;49.080;11.896;2023-09-18T07:24:32;95852.00;;;21.70
33267;BMP180;19638;49.080;11.896;2023-09-18T07:28:35;95850.00;;;21.80
33267;BMP180;19638;49.080;11.896;2023-09-18T07:32:40;95847.00;;;22.00
33267;BMP180;19638;49.080;11.896;2023-09-18T07:36:44;95847.00;;;22.10
33267;BMP180;19638;49.080;11.896;2023-09-18T07:40:49;95845.00;;;22.20
33267;BMP180;19638;49.080;11.896;2023-09-18T07:44:53;95849.00;;;22.40
33267;BMP180;19638;49.080;11.896;2023-09-18T07:49:00;95852.00;;;22.50
33267;BMP180;19638;49.080;11.896;2023-09-18T07:53:03;95853.00;;;22.70
33267;BMP180;19638;49.080;11.896;2023-09-18T07:57:07;95843.00;;;23.00
33267;BMP180;19638;49.080;11.896;2023-09-18T08:01:15;95863.00;;;23.20
33267;BMP180;19638;49.080;11.896;2023-09-18T08:05:18;95868.00;;;23.60
33267;BMP180;19638;49.080;11.896;2023-09-18T08:09:22;95879.00;;;23.70
33267;BMP180;19638;49.080;11.896;2023-09-18T08:13:29;95885.00;;;23.90
33267;BMP180;19638;49.080;11.896;2023-09-18T08:17:35;95874.00;;;24.10
33267;BMP180;19638;49.080;11.896;2023-09-18T08:21:40;95862.00;;;24.50
33267;BMP180;19638;49.080;11.896;2023-09-18T08:25:49;95853.00;;;25.00
33267;BMP180;19638;49.080;11.896;2023-09-18T08:29:54;95847.00;;;25.20
33267;BMP180;19638;49.080;11.896;2023-09-18T08:34:00;95844.00;;;25.60
33267;BMP180;19638;49.080;11.896;2023-09-18T08:38:06;95851.00;;;26.10
33267;BMP180;19638;49.080;11.896;2023-09-18T08:42:20;95833.00;;;26.40
33267;BMP180;19638;49.080;11.896;2023-09-18T08:46:25;95826.00;;;26.60
33267;BMP180;19638;49.080;11.896;2023-09-18T08:50:28;95834.00;;;26.70
33267;BMP180;19638;49.080;11.896;2023-09-18T08:54:37;95841.00;;;27.10
33267;BMP180;19638;49.080;11.896;2023-09-18T08:58:40;95838.00;;;27.90
33267;BMP180;19638;49.080;11.896;2023-09-18T09:02:46;95836.00;;;28.40
33267;BMP180;19638;49.080;11.896;2023-09-18T09:06:55;95841.00;;;28.70
33267;BMP180;19638;49.080;11.896;2023-09-18T09:11:05;95857.00;;;29.20
33267;BMP180;19638;49.080;11.896;2023-09-18T09:15:11;95859.00;;;28.80
33267;BMP180;19638;49.080;11.896;2023-09-18T09:19:30;95847.00;;;29.00
33267;BMP180;19638;49.080;11.896;2023-09-18T09:23:52;95851.00;;;29.00
33267;BMP180;19638;49.080;11.896;2023-09-18T09:27:56;95849.00;;;29.70
33267;BMP180;19638;49.080;11.896;2023-09-18T09:32:12;95850.00;;;30.60
33267;BMP180;19638;49.080;11.896;2023-09-18T09:36:17;95852.00;;;31.40
33267;BMP180;19638;49.080;11.896;2023-09-18T09:40:23;95853.00;;;32.10
33267;BMP180;19638;49.080;11.896;2023-09-18T09:44:26;95852.00;;;32.40
33267;BMP180;19638;49.080;11.896;2023-09-18T09:48:37;95834.00;;;32.50
33267;BMP180;19638;49.080;11.896;2023-09-18T09:52:47;95827.00;;;32.60
33267;BMP180;19638;49.080;11.896;2023-09-18T09:56:51;95838.00;;;33.10
33267;BMP180;19638;49.080;11.896;2023-09-18T10:00:58;95820.00;;;33.10
33267;BMP180;19638;49.080;11.896;2023-09-18T10:05:13;95825.00;;;32.70
33267;BMP180;19638;49.080;11.896;2023-09-18T10:09:20;95822.00;;;32.90
33267;BMP180;19638;49.080;11.896;2023-09-18T10:13:39;95825.00;;;33.10
33267;BMP180;19638;49.080;11.896;2023-09-18T10:17:44;95834.00;;;33.20
33267;BMP180;19638;49.080;11.896;2023-09-18T10:22:02;95840.00;;;33.30
33267;BMP180;19638;49.080;11.896;2023-09-18T10:26:22;95843.00;;;32.80
33267;BMP180;19638;49.080;11.896;2023-09-18T10:30:27;95844.00;;;32.00
33267;BMP180;19638;49.080;11.896;2023-09-18T10:34:33;95838.00;;;31.30
33267;BMP180;19638;49.080;11.896;2023-09-18T10:38:39;95849.00;;;31.10
33267;BMP180;19638;49.080;11.896;2023-09-18T10:42:48;95842.00;;;31.00
33267;BMP180;19638;49.080;11.896;2023-09-18T10:46:52;95843.00;;;30.90
33267;BMP180;19638;49.080;11.896;2023-09-18T10:50:56;95846.00;;;30.70
33267;BMP180;19638;49.080;11.896;2023-09-18T10:55:06;95845.00;;;30.60
33267;BMP180;19638;49.080;11.896;2023-09-18T10:59:14;95843.00;;;30.40
33267;BMP180;19638;49.080;11.896;2023-09-18T11:03:22;95854.00;;;30.30
33267;BMP180;19638;49.080;11.896;2023-09-18T11:07:25;95858.00;;;30.10
33267;BMP180;19638;49.080;11.896;2023-09-18T11:11:39;95870.00;;;29.90
33267;BMP180;19638;49.080;11.896;2023-09-18T11:15:44;95863.00;;;29.70
33267;BMP180;19638;49.080;11.896;2023-09-18T11:19:48;95876.00;;;29.40
33267;BMP180;19638;49.080;11.896;2023-09-18T11:23:59;95867.00;;;29.50
33267;BMP180;19638;49.080;11.896;2023-09-18T11:28:03;95869.00;;;29.80
33267;BMP180;19638;49.080;11.896;2023-09-18T11:32:10;95875.00;;;30.00
33267;BMP180;19638;49.080;11.896;2023-09-18T11:36:28;95882.00;;;30.00
33267;BMP180;19638;49.080;11.896;2023-09-18T11:40:33;95882.00;;;29.90
33267;BMP180;19638;49.080;11.896;2023-09-18T11:44:40;95890.00;;;29.80
33267;BMP180;19638;49.080;11.896;2023-09-18T11:48:49;95892.00;;;29.90
33267;BMP180;19638;49.080;11.896;2023-09-18T11:52:57;95882.00;;;30.00
33267;BMP180;19638;49.080;11.896;2023-09-18T11:57:05;95900.00;;;29.90
33267;BMP180;19638;49.080;11.896;2023-09-18T12:01:11;95890.00;;;29.80
33267;BMP180;19638;49.080;11.896;2023-09-18T12:05:27;95897.00;;;29.90
33267;BMP180;19638;49.080;11.896;2023-09-18T12:09:32;95916.00;;;29.70
33267;BMP180;19638;49.080;11.896;2023-09-18T12:13:39;95904.00;;;29.40
33267;BMP180;19638;49.080;11.896;2023-09-18T12:17:45;95923.00;;;29.10
33267;BMP180;19638;49.080;11.896;2023-09-18T12:21:54;95910.00;;;29.00
33267;BMP180;19638;49.080;11.896;2023-09-18T12:25:59;95908.00;;;28.80
33267;BMP180;19638;49.080;11.896;2023-09-18T12:30:04;95925.00;;;28.70
33267;BMP180;19638;49.080;11.896;2023-09-18T12:34:14;95931.00;;;28.90
33267;BMP180;19638;49.080;11.896;2023-09-18T12:38:19;95932.00;;;28.60
33267;BMP180;19638;49.080;11.896;2023-09-18T12:42:28;95938.00;;;28.10
33267;BMP180;19638;49.080;11.896;2023-09-18T12:46:38;95937.00;;;27.80
33267;BMP180;19638;49.080;11.896;2023-09-18T12:50:45;95942.00;;;27.60
33267;BMP180;19638;49.080;11.896;2023-09-18T12:54:50;95947.00;;;27.40
33267;BMP180;19638;49.080;11.896;2023-09-18T12:59:00;95951.00;;;27.20
33267;BMP180;19638;49.080;11.896;2023-09-18T13:03:16;95945.00;;;26.80
33267;BMP180;19638;49.080;11.896;2023-09-18T13:07:23;95961.00;;;26.40
33267;BMP180;19638;49.080;11.896;2023-09-18T13:11:31;95964.00;;;26.20
33267;BMP180;19638;49.080;11.896;2023-09-18T13:15:36;95973.00;;;26.00
33267;BMP180;19638;49.080;11.896;2023-09-18T13:19:43;95988.00;;;25.80
33267;BMP180;19638;49.080;11.896;2023-09-18T13:23:49;95999.00;;;25.60
33267;BMP180;19638;49.080;11.896;2023-09-18T13:27:58;96020.00;;;25.40
33267;BMP180;19638;49.080;11.896;2023-09-18T13:32:04;96022.00;;;25.00
33267;BMP180;19638;49.080;11.896;2023-09-18T13:36:07;96035.00;;;24.60
33267;BMP180;19638;49.080;11.896;2023-09-18T13:40:11;96031.00;;;24.20
33267;BMP180;19638;49.080;11.896;2023-09-18T13:44:18;96035.00;;;23.80
33267;BMP180;19638;49.080;11.896;2023-09-18T13:48:23;96047.00;;;23.50
33267;BMP180;19638;49.080;11.896;2023-09-18T13:52:27;96059.00;;;23.30
33267;BMP180;19638;49.080;11.896;2023-09-18T13:56:30;96063.00;;;22.80
33267;BMP180;19638;49.080;11.896;2023-09-18T14:00:37;96061.00;;;22.00
33267;BMP180;19638;49.080;11.896;2023-09-18T14:04:40;96051.00;;;21.20
33267;BMP180;19638;49.080;11.896;2023-09-18T14:08:43;96050.00;;;20.50
33267;BMP180;19638;49.080;11.896;2023-09-18T14:12:47;96046.00;;;20.00
33267;BMP180;19638;49.080;11.896;2023-09-18T14:16:52;96056.00;;;19.60
33267;BMP180;19638;49.080;11.896;2023-09-18T14:21:01;96045.00;;;19.20
33267;BMP180;19638;49.080;11.896;2023-09-18T14:25:09;96033.00;;;18.90
33267;BMP180;19638;49.080;11.896;2023-09-18T14:29:15;96026.00;;;18.70
33267;BMP180;19638;49.080;11.896;2023-09-18T14:33:23;96016.00;;;18.60
33267;BMP180;19638;49.080;11.896;2023-09-18T14:37:27;96025.00;;;18.60
33267;BMP180;19638;49.080;11.896;2023-09-18T14:41:30;96025.00;;;18.60
33267;BMP180;19638;49.080;11.896;2023-09-18T14:45:36;96021.00;;;18.60
33267;BMP180;19638;49.080;11.896;2023-09-18T14:49:43;96023.00;;;18.70
33267;BMP180;19638;49.080;11.896;2023-09-18T14:53:55;96011.00;;;18.70
33267;BMP180;19638;49.080;11.896;2023-09-18T14:57:59;95995.00;;;18.80
33267;BMP180;19638;49.080;11.896;2023-09-18T15:02:02;95997.00;;;18.70
33267;BMP180;19638;49.080;11.896;2023-09-18T15:06:07;95990.00;;;18.60
33267;BMP180;19638;49.080;11.896;2023-09-18T15:10:11;95984.00;;;18.50
33267;BMP180;19638;49.080;11.896;2023-09-18T15:14:16;95989.00;;;18.40
33267;BMP180;19638;49.080;11.896;2023-09-18T15:18:22;95978.00;;;18.40
33267;BMP180;19638;49.080;11.896;2023-09-18T15:22:27;95983.00;;;18.50
33267;BMP180;19638;49.080;11.896;2023-09-18T15:26:33;95977.00;;;18.70
33267;BMP180;19638;49.080;11.896;2023-09-18T15:30:41;95961.00;;;18.90
33267;BMP180;19638;49.080;11.896;2023-09-18T15:34:45;95984.00;;;19.00
33267;BMP180;19638;49.080;11.896;2023-09-18T15:38:51;95985.00;;;18.80
33267;BMP180;19638;49.080;11.896;2023-09-18T15:43:01;95983.00;;;18.90
33267;BMP180;19638;49.080;11.896;2023-09-18T15:47:07;95974.00;;;18.70
33267;BMP180;19638;49.080;11.896;2023-09-18T15:51:16;95963.00;;;18.70
33267;BMP180;19638;49.080;11.896;2023-09-18T15:55:23;95949.00;;;18.60
33267;BMP180;19638;49.080;11.896;2023-09-18T15:59:31;95946.00;;;18.60
33267;BMP180;19638;49.080;11.896;2023-09-18T16:03:34;95940.00;;;18.60
33267;BMP180;19638;49.080;11.896;2023-09-18T16:07:40;95952.00;;;18.60
33267;BMP180;19638;49.080;11.896;2023-09-18T16:11:45;95976.00;;;18.60
33267;BMP180;19638;49.080;11.896;2023-09-18T16:15:49;95972.00;;;18.60
33267;BMP180;19638;49.080;11.896;2023-09-18T16:19:52;95973.00;;;18.60
33267;BMP180;19638;49.080;11.896;2023-09-18T16:23:56;95974.00;;;18.40
33267;BMP180;19638;49.080;11.896;2023-09-18T16:28:01;95987.00;;;18.40
33267;BMP180;19638;49.080;11.896;2023-09-18T16:32:06;95988.00;;;18.30
33267;BMP180;19638;49.080;11.896;2023-09-18T16:36:09;95977.00;;;18.20
33267;BMP180;19638;49.080;11.896;2023-09-18T16:40:18;95959.00;;;18.10
33267;BMP180;19638;49.080;11.896;2023-09-18T16:44:24;95958.00;;;18.10
33267;BMP180;19638;49.080;11.896;2023-09-18T16:48:28;95954.00;;;18.10
33267;BMP180;19638;49.080;11.896;2023-09-18T16:52:32;95957.00;;;18.00
33267;BMP180;19638;49.080;11.896;2023-09-18T16:56:37;95963.00;;;18.00
33267;BMP180;19638;49.080;11.896;2023-09-18T17:00:42;95957.00;;;18.00
33267;BMP180;19638;49.080;11.896;2023-09-18T17:04:46;95960.00;;;18.10
33267;BMP180;19638;49.080;11.896;2023-09-18T17:08:57;95935.00;;;18.10
33267;BMP180;19638;49.080;11.896;2023-09-18T17:13:01;95932.00;;;18.10
33267;BMP180;19638;49.080;11.896;2023-09-18T17:17:07;95918.00;;;18.10
33267;BMP180;19638;49.080;11.896;2023-09-18T17:21:13;95906.00;;;18.00
33267;BMP180;19638;49.080;11.896;2023-09-18T17:25:17;95906.00;;;18.10
33267;BMP180;19638;49.080;11.896;2023-09-18T17:29:21;95904.00;;;18.10
33267;BMP180;19638;49.080;11.896;2023-09-18T17:33:28;95912.00;;;18.10
33267;BMP180;19638;49.080;11.896;2023-09-18T17:37:32;95911.00;;;18.10
33267;BMP180;19638;49.080;11.896;2023-09-18T17:41:35;95916.00;;;18.10
33267;BMP180;19638;49.080;11.896;2023-09-18T17:45:42;95915.00;;;18.10
33267;BMP180;19638;49.080;11.896;2023-09-18T17:49:49;95907.00;;;18.10
33267;BMP180;19638;49.080;11.896;2023-09-18T17:53:54;95910.00;;;18.00
33267;BMP180;19638;49.080;11.896;2023-09-18T17:57:57;95916.00;;;18.00
33267;BMP180;19638;49.080;11.896;2023-09-18T18:02:03;95920.00;;;18.00
33267;BMP180;19638;49.080;11.896;2023-09-18T18:06:12;95927.00;;;17.90
33267;BMP180;19638;49.080;11.896;2023-09-18T18:10:16;95934.00;;;17.80
33267;BMP180;19638;49.080;11.896;2023-09-18T18:14:19;95938.00;;;17.70
33267;BMP180;19638;49.080;11.896;2023-09-18T18:18:23;95941.00;;;17.60
33267;BMP180;19638;49.080;11.896;2023-09-18T18:22:29;95936.00;;;17.50
33267;BMP180;19638;49.080;11.896;2023-09-18T18:26:40;95916.00;;;17.40
33267;BMP180;19638;49.080;11.896;2023-09-18T18:30:48;95928.00;;;17.30
33267;BMP180;19638;49.080;11.896;2023-09-18T18:34:52;95936.00;;;17.30
33267;BMP180;19638;49.080;11.896;2023-09-18T18:38:58;95938.00;;;17.20
33267;BMP180;19638;49.080;11.896;2023-09-18T18:43:07;95933.00;;;17.10
33267;BMP180;19638;49.080;11.896;2023-09-18T18:47:10;95933.00;;;17.00
33267;BMP180;19638;49.080;11.896;2023-09-18T18:51:15;95920.00;;;17.00
33267;BMP180;19638;49.080;11.896;2023-09-18T18:55:29;95941.00;;;16.90
33267;BMP180;19638;49.080;11.896;2023-09-18T18:59:34;95948.00;;;16.90
33267;BMP180;19638;49.080;11.896;2023-09-18T19:03:42;95939.00;;;16.90
33267;BMP180;19638;49.080;11.896;2023-09-18T19:07:50;95934.00;;;16.90
33267;BMP180;19638;49.080;11.896;2023-09-18T19:11:55;95941.00;;;16.90
33267;BMP180;19638;49.080;11.896;2023-09-18T19:16:01;95935.00;;;16.80
33267;BMP180;19638;49.080;11.896;2023-09-18T19:20:07;95939.00;;;16.80
33267;BMP180;19638;49.080;11.896;2023-09-18T19:24:13;95934.00;;;16.80
33267;BMP180;19638;49.080;11.896;2023-09-18T19:28:20;95932.00;;;16.80
33267;BMP180;19638;49.080;11.896;2023-09-18T19:32:31;95932.00;;;16.80
33267;BMP180;19638;49.080;11.896;2023-09-18T19:36:34;95928.00;;;16.80
33267;BMP180;19638;49.080;11.896;2023-09-18T19:40:43;95920.00;;;16.80
33267;BMP180;19638;49.080;11.896;2023-09-18T19:44:48;95916.00;;;16.80
33267;BMP180;19638;49.080;11.896;2023-09-18T19:48:52;95925.00;;;16.80
33267;BMP180;19638;49.080;11.896;2023-09-18T19:52:55;95923.00;;;16.80
33267;BMP180;19638;49.080;11.896;2023-09-18T19:57:02;95915.00;;;16.80
33267;BMP180;19638;49.080;11.896;2023-09-18T20:01:07;95907.00;;;16.80
33267;BMP180;19638;49.080;11.896;2023-09-18T20:05:12;95918.00;;;16.80
33267;BMP180;19638;49.080;11.896;2023-09-18T20:09:17;95914.00;;;16.70
33267;BMP180;19638;49.080;11.896;2023-09-18T20:13:20;95894.00;;;16.80
33267;BMP180;19638;49.080;11.896;2023-09-18T20:17:25;95908.00;;;16.80
33267;BMP180;19638;49.080;11.896;2023-09-18T20:21:29;95906.00;;;16.70
33267;BMP180;19638;49.080;11.896;2023-09-18T20:25:32;95912.00;;;16.70
33267;BMP180;19638;49.080;11.896;2023-09-18T20:29:37;95923.00;;;16.70
33267;BMP180;19638;49.080;11.896;2023-09-18T20:33:42;95920.00;;;16.70
33267;BMP180;19638;49.080;11.896;2023-09-18T20:37:45;95916.00;;;16.80
33267;BMP180;19638;49.080;11.896;2023-09-18T20:41:48;95915.00;;;16.80
33267;BMP180;19638;49.080;11.896;2023-09-18T20:45:54;95906.00;;;16.80
33267;BMP180;19638;49.080;11.896;2023-09-18T20:50:00;95896.00;;;16.90
33267;BMP180;19638;49.080;11.896;2023-09-18T20:54:07;95912.00;;;16.90
33267;BMP180;19638;49.080;11.896;2023-09-18T20:58:10;95913.00;;;16.90
33267;BMP180;19638;49.080;11.896;2023-09-18T21:02:14;95909.00;;;16.90
33267;BMP180;19638;49.080;11.896;2023-09-18T21:06:20;95914.00;;;16.90
33267;BMP180;19638;49.080;11.896;2023-09-18T21:10:23;95916.00;;;16.80
33267;BMP180;19638;49.080;11.896;2023-09-18T21:14:34;95921.00;;;16.80
33267;BMP180;19638;49.080;11.896;2023-09-18T21:18:40;95929.00;;;16.70
33267;BMP180;19638;49.080;11.896;2023-09-18T21:22:45;95926.00;;;16.60
33267;BMP180;19638;49.080;11.896;2023-09-18T21:26:50;95925.00;;;16.60
33267;BMP180;19638;49.080;11.896;2023-09-18T21:31:06;95925.00;;;16.50
33267;BMP180;19638;49.080;11.896;2023-09-18T21:35:12;95940.00;;;16.50
33267;BMP180;19638;49.080;11.896;2023-09-18T21:39:21;95939.00;;;16.40
33267;BMP180;19638;49.080;11.896;2023-09-18T21:43:24;95930.00;;;16.40
33267;BMP180;19638;49.080;11.896;2023-09-18T21:47:30;95935.00;;;16.40
33267;BMP180;19638;49.080;11.896;2023-09-18T21:51:36;95926.00;;;16.40
33267;BMP180;19638;49.080;11.896;2023-09-18T21:55:43;95919.00;;;16.40
33267;BMP180;19638;49.080;11.896;2023-09-18T21:59:47;95918.00;;;16.40
33267;BMP180;19638;49.080;11.896;2023-09-18T22:03:52;95903.00;;;16.40
33267;BMP180;19638;49.080;11.896;2023-09-18T22:07:56;95908.00;;;16.40
33267;BMP180;19638;49.080;11.896;2023-09-18T22:12:07;95908.00;;;16.40
33267;BMP180;19638;49.080;11.896;2023-09-18T22:16:10;95911.00;;;16.40
33267;BMP180;19638;49.080;11.896;2023-09-18T22:20:15;95895.00;;;16.40
33267;BMP180;19638;49.080;11.896;2023-09-18T22:24:18;95915.00;;;16.40
33267;BMP180;19638;49.080;11.896;2023-09-18T22:28:23;95916.00;;;16.30
33267;BMP180;19638;49.080;11.896;2023-09-18T22:32:29;95904.00;;;16.30
33267;BMP180;19638;49.080;11.896;2023-09-18T22:36:36;95902.00;;;16.20
33267;BMP180;19638;49.080;11.896;2023-09-18T22:58:29;95906.00;;;16.00
33267;BMP180;19638;49.080;11.896;2023-09-18T23:02:33;95917.00;;;16.00
33267;BMP180;19638;49.080;11.896;2023-09-18T23:06:46;95917.00;;;16.00
33267;BMP180;19638;49.080;11.896;2023-09-18T23:10:52;95919.00;;;16.10
33267;BMP180;19638;49.080;11.896;2023-09-18T23:15:00;95919.00;;;16.10
33267;BMP180;19638;49.080;11.896;2023-09-18T23:19:11;95917.00;;;16.20
33267;BMP180;19638;49.080;11.896;2023-09-18T23:23:17;95914.00;;;16.20
33267;BMP180;19638;49.080;11.896;2023-09-18T23:27:23;95917.00;;;16.20
33267;BMP180;19638;49.080;11.896;2023-09-18T23:31:32;95927.00;;;16.30
33267;BMP180;19638;49.080;11.896;2023-09-18T23:35:35;95930.00;;;16.30
33267;BMP180;19638;49.080;11.896;2023-09-18T23:39:40;95925.00;;;16.30